createdAt,value
2022-11-17T00:00:38.984Z,3.33
2022-11-17T00:02:40.711Z,3.25
2022-11-17T00:04:44.227Z,4.03
2022-11-17T00:06:45.968Z,3.35
2022-11-17T00:08:49.098Z,3.30
2022-11-17T00:10:50.726Z,3.28
2022-11-17T00:13:10.768Z,4.18
2022-11-17T00:15:22.402Z,4.77
2022-11-17T00:17:24.069Z,3.65
2022-11-17T00:19:44.601Z,4.13
2022-11-17T00:21:46.309Z,3.83
2022-11-17T00:23:48.534Z,4.53
2022-11-17T00:25:51.309Z,4.00
2022-11-17T00:27:52.926Z,4.13
2022-11-17T00:29:54.601Z,4.00
2022-11-17T00:32:15.067Z,3.53
2022-11-17T00:34:21.709Z,3.00
2022-11-17T00:36:26.068Z,3.10
2022-11-17T00:38:27.694Z,4.32
2022-11-17T00:40:29.383Z,3.25
2022-11-17T00:42:31.503Z,3.70
2022-11-17T00:44:33.819Z,3.53
2022-11-17T00:46:37.360Z,3.40
2022-11-17T00:48:39.039Z,2.80
2022-11-17T00:50:40.914Z,2.88
2022-11-17T00:52:42.653Z,2.85
2022-11-17T00:54:44.499Z,3.00
2022-11-17T00:56:46.925Z,3.22
2022-11-17T00:58:48.625Z,3.83
2022-11-17T01:00:50.481Z,2.83
2022-11-17T01:02:52.094Z,3.15
2022-11-17T01:04:53.776Z,3.72
2022-11-17T01:06:55.479Z,3.80
2022-11-17T01:09:01.783Z,2.85
2022-11-17T01:11:11.061Z,2.92
2022-11-17T01:13:12.767Z,3.17
2022-11-17T01:15:22.528Z,3.28
2022-11-17T01:17:24.232Z,2.58
2022-11-17T01:19:25.902Z,3.88
2022-11-17T01:21:29.305Z,2.53
2022-11-17T01:23:31.395Z,3.30
2022-11-17T01:25:33.171Z,2.90
2022-11-17T01:27:34.821Z,3.17
2022-11-17T01:29:36.511Z,2.80
2022-11-17T01:31:40.264Z,3.10
2022-11-17T01:33:42.261Z,3.92
2022-11-17T01:35:43.941Z,3.15
2022-11-17T01:37:45.592Z,3.60
2022-11-17T01:39:49.161Z,3.80
2022-11-17T01:41:51.186Z,4.07
2022-11-17T01:43:55.671Z,4.13
2022-11-17T01:45:58.169Z,4.40
2022-11-17T01:48:03.209Z,3.67
2022-11-17T01:50:13.639Z,3.85
2022-11-17T01:52:16.006Z,2.83
2022-11-17T01:54:21.639Z,3.80
2022-11-17T01:56:29.399Z,3.22
2022-11-17T01:58:43.978Z,3.80
2022-11-17T02:00:45.848Z,3.58
2022-11-17T02:02:48.289Z,3.83
2022-11-17T02:04:58.936Z,3.67
2022-11-17T02:07:10.104Z,3.20
2022-11-17T02:09:12.015Z,3.95
2022-11-17T02:11:17.289Z,3.50
2022-11-17T02:13:21.358Z,2.80
2022-11-17T02:15:23.249Z,3.75
2022-11-17T02:17:34.322Z,2.97
2022-11-17T02:19:45.265Z,4.32
2022-11-17T02:22:15.603Z,4.10
2022-11-17T02:24:46.384Z,4.28
2022-11-17T02:27:01.247Z,4.70
2022-11-17T02:29:08.921Z,4.50
2022-11-17T02:31:45.839Z,5.47
2022-11-17T02:34:30.559Z,6.15
2022-11-17T02:36:44.264Z,5.93
2022-11-17T02:39:22.714Z,5.65
2022-11-17T02:41:36.254Z,5.35
2022-11-17T02:44:03.906Z,4.32
2022-11-17T02:46:19.477Z,3.63
2022-11-17T02:48:29.670Z,2.22
2022-11-17T02:50:34.875Z,2.65
2022-11-17T02:52:36.738Z,2.47
2022-11-17T02:54:38.399Z,2.83
2022-11-17T02:56:41.873Z,2.20
2022-11-17T02:58:43.514Z,2.60
2022-11-17T03:01:22.242Z,2.35
2022-11-17T03:03:36.942Z,1.90
2022-11-17T03:06:08.338Z,2.03
2022-11-17T03:08:24.302Z,1.77
2022-11-17T03:10:34.826Z,1.60
2022-11-17T03:12:59.528Z,1.30
2022-11-17T03:15:24.226Z,1.23
2022-11-17T03:17:44.257Z,1.00
2022-11-17T03:19:56.139Z,0.70
2022-11-17T03:22:08.448Z,0.40
2022-11-17T03:24:22.505Z,0.73
2022-11-17T03:26:30.131Z,0.10
2022-11-17T03:28:33.113Z,0.20
2022-11-17T03:30:37.855Z,0.20
2022-11-17T03:32:43.707Z,0.20
2022-11-17T03:34:56.586Z,0.10
2022-11-17T03:37:03.304Z,0.10
2022-11-17T03:39:19.824Z,0.00
2022-11-17T03:41:23.699Z,0.10
2022-11-17T03:43:26.856Z,0.10
2022-11-17T03:45:31.861Z,0.03
2022-11-17T03:47:35.066Z,0.10
2022-11-17T03:49:42.766Z,0.00
2022-11-17T03:51:44.459Z,0.00
2022-11-17T03:53:47.506Z,0.00
2022-11-17T03:56:08.761Z,0.05
2022-11-17T03:58:17.299Z,0.00
2022-11-17T04:00:19.945Z,0.00
2022-11-17T04:02:24.313Z,0.00
2022-11-17T04:04:45.935Z,0.00
2022-11-17T04:06:49.985Z,0.10
2022-11-17T04:08:51.713Z,0.10
2022-11-17T04:11:22.837Z,0.10
2022-11-17T04:13:43.154Z,0.00
2022-11-17T04:15:56.967Z,0.00
2022-11-17T04:17:58.645Z,0.10
2022-11-17T04:20:00.310Z,0.13
2022-11-17T04:22:02.053Z,0.00
2022-11-17T04:24:03.723Z,0.10
2022-11-17T04:26:23.801Z,0.10
2022-11-17T04:28:38.955Z,0.10
2022-11-17T04:30:41.007Z,0.10
2022-11-17T04:32:42.894Z,0.20
2022-11-17T04:34:44.713Z,0.10
2022-11-17T04:36:46.638Z,0.20
2022-11-17T04:38:53.461Z,0.20
2022-11-17T04:41:24.751Z,0.30
2022-11-17T04:43:26.333Z,0.50
2022-11-17T04:45:27.948Z,0.20
2022-11-17T04:47:29.629Z,0.20
2022-11-17T04:49:32.363Z,0.45
2022-11-17T04:51:34.888Z,0.30
2022-11-17T04:53:37.556Z,0.30
2022-11-17T04:55:39.463Z,0.30
2022-11-17T04:57:41.041Z,0.20
2022-11-17T04:59:42.703Z,0.30
2022-11-17T05:01:45.102Z,0.60
2022-11-17T05:03:52.433Z,0.20
2022-11-17T05:05:54.017Z,0.20
2022-11-17T05:07:55.700Z,0.40
2022-11-17T05:09:57.312Z,0.32
2022-11-17T05:12:17.889Z,0.40
2022-11-17T05:14:22.006Z,0.30
2022-11-17T05:16:42.841Z,0.40
2022-11-17T05:18:44.556Z,0.57
2022-11-17T05:20:46.092Z,0.50
2022-11-17T05:23:09.116Z,0.43
2022-11-17T05:25:10.901Z,0.50
2022-11-17T05:27:12.626Z,0.52
2022-11-17T05:29:16.446Z,0.50
2022-11-17T05:31:18.849Z,0.68
2022-11-17T05:33:20.453Z,0.77
2022-11-17T05:35:27.808Z,0.68
2022-11-17T05:37:29.513Z,0.68
2022-11-17T05:39:31.153Z,0.57
2022-11-17T05:41:33.121Z,0.80
2022-11-17T05:43:35.192Z,0.65
2022-11-17T05:45:37.001Z,0.70
2022-11-17T05:47:38.935Z,0.55
2022-11-17T05:49:40.656Z,0.80
2022-11-17T05:51:42.455Z,0.50
2022-11-17T05:53:44.155Z,0.82
2022-11-17T05:55:45.809Z,0.88
2022-11-17T05:57:49.126Z,0.70
2022-11-17T05:59:57.231Z,1.00
2022-11-17T06:02:08.421Z,0.90
2022-11-17T06:04:11.300Z,0.75
2022-11-17T06:06:13.773Z,1.02
2022-11-17T06:08:15.373Z,1.05
2022-11-17T06:10:17.599Z,0.75
2022-11-17T06:12:19.300Z,0.90
2022-11-17T06:14:20.933Z,1.00
2022-11-17T06:16:27.561Z,0.80
2022-11-17T06:18:41.897Z,1.10
2022-11-17T06:20:48.859Z,0.80
2022-11-17T06:22:51.454Z,0.93
2022-11-17T06:24:55.737Z,0.88
2022-11-17T06:26:57.378Z,0.77
2022-11-17T06:28:59.058Z,1.10
2022-11-17T06:31:01.126Z,1.15
2022-11-17T06:33:04.275Z,0.90
2022-11-17T06:35:08.852Z,1.20
2022-11-17T06:37:11.462Z,1.02
2022-11-17T06:39:13.077Z,1.45
2022-11-17T06:41:14.716Z,1.08
2022-11-17T06:43:17.162Z,0.90
2022-11-17T06:45:21.658Z,0.85
2022-11-17T06:47:23.278Z,0.82
2022-11-17T06:49:24.959Z,0.93
2022-11-17T06:51:27.024Z,1.33
2022-11-17T06:53:28.757Z,0.88
2022-11-17T06:55:31.305Z,0.93
2022-11-17T06:57:33.239Z,0.90
2022-11-17T06:59:34.967Z,0.85
2022-11-17T07:01:37.804Z,1.10
2022-11-17T07:03:41.237Z,1.20
2022-11-17T07:05:42.898Z,1.20
2022-11-17T07:07:44.526Z,0.95
2022-11-17T07:09:46.224Z,1.30
2022-11-17T07:11:47.990Z,1.02
2022-11-17T07:13:49.826Z,1.48
2022-11-17T07:15:52.411Z,0.90
2022-11-17T07:17:54.173Z,1.30
2022-11-17T07:19:58.389Z,2.15
2022-11-17T07:22:00.138Z,1.05
2022-11-17T07:24:02.532Z,0.90
2022-11-17T07:26:07.965Z,0.70
2022-11-17T07:28:09.849Z,0.70
2022-11-17T07:30:12.072Z,0.60
2022-11-17T07:32:16.625Z,0.63
2022-11-17T07:34:18.621Z,0.80
2022-11-17T07:36:20.603Z,0.68
2022-11-17T07:38:22.977Z,0.70
2022-11-17T07:40:24.824Z,0.65
2022-11-17T07:42:26.758Z,0.70
2022-11-17T07:44:28.427Z,0.60
2022-11-17T07:46:30.112Z,0.60
2022-11-17T07:48:32.863Z,0.60
2022-11-17T07:50:35.514Z,0.93
2022-11-17T07:52:41.240Z,0.68
2022-11-17T07:54:43.512Z,0.80
2022-11-17T07:56:45.333Z,0.90
2022-11-17T07:58:47.166Z,1.10
2022-11-17T08:00:48.888Z,1.00
2022-11-17T08:02:50.945Z,0.90
2022-11-17T08:04:52.598Z,0.98
2022-11-17T08:06:54.446Z,0.80
2022-11-17T08:08:56.550Z,0.85
2022-11-17T08:11:06.280Z,1.33
2022-11-17T08:13:08.147Z,1.20
2022-11-17T08:15:21.400Z,1.35
2022-11-17T08:17:23.310Z,1.10
2022-11-17T08:19:24.979Z,0.90
2022-11-17T08:21:26.635Z,1.70
2022-11-17T08:23:28.536Z,1.30
2022-11-17T08:25:30.223Z,1.40
2022-11-17T08:27:31.883Z,1.33
2022-11-17T08:29:33.723Z,1.77
2022-11-17T08:31:37.321Z,1.73
2022-11-17T08:33:39.004Z,1.88
2022-11-17T08:35:40.684Z,2.30
2022-11-17T08:37:42.394Z,2.10
2022-11-17T08:39:44.530Z,1.98
2022-11-17T08:41:46.217Z,2.38
2022-11-17T08:43:47.908Z,2.38
2022-11-17T08:45:49.699Z,2.40
2022-11-17T08:47:51.987Z,2.42
2022-11-17T08:49:53.777Z,2.13
2022-11-17T08:51:55.531Z,2.58
2022-11-17T08:53:59.113Z,2.22
2022-11-17T08:56:01.058Z,2.50
2022-11-17T08:58:04.231Z,1.80
2022-11-17T09:00:07.154Z,1.80
2022-11-17T09:02:13.679Z,1.77
2022-11-17T09:04:16.397Z,1.80
2022-11-17T09:06:18.412Z,2.00
2022-11-17T09:08:56.251Z,2.53
2022-11-17T09:10:42.096Z,1.70
2022-11-17T09:12:43.898Z,1.80
2022-11-17T09:14:45.598Z,1.67
2022-11-17T09:16:47.284Z,1.60
2022-11-17T09:18:49.228Z,1.63
2022-11-17T09:20:50.938Z,1.58
2022-11-17T09:22:52.659Z,1.58
2022-11-17T09:24:54.385Z,1.42
2022-11-17T09:26:57.610Z,1.50
2022-11-17T09:29:03.321Z,1.50
2022-11-17T09:31:23.663Z,1.70
2022-11-17T09:33:25.611Z,1.30
2022-11-17T09:35:27.262Z,1.30
2022-11-17T09:37:28.916Z,1.58
2022-11-17T09:39:30.726Z,1.40
2022-11-17T09:41:44.431Z,1.88
2022-11-17T09:43:56.975Z,1.25
2022-11-17T09:46:13.698Z,1.90
2022-11-17T09:48:41.226Z,1.42
2022-11-17T09:50:46.231Z,1.38
2022-11-17T09:53:17.702Z,1.40
2022-11-17T09:55:53.931Z,1.15
2022-11-17T09:58:42.097Z,1.30
2022-11-17T10:00:48.848Z,1.30
2022-11-17T10:02:51.555Z,1.13
2022-11-17T10:04:53.827Z,1.40
2022-11-17T10:06:56.470Z,1.10
2022-11-17T10:09:28.830Z,1.10
2022-11-17T10:11:36.388Z,1.08
2022-11-17T10:13:38.516Z,1.48
2022-11-17T10:15:49.357Z,1.30
2022-11-17T10:17:51.503Z,1.05
2022-11-17T10:19:53.913Z,1.10
2022-11-17T10:22:17.080Z,1.15
2022-11-17T10:24:39.631Z,1.50
2022-11-17T10:26:49.567Z,1.38
2022-11-17T10:29:09.291Z,1.10
2022-11-17T10:31:17.174Z,1.00
2022-11-17T10:33:31.971Z,1.05
2022-11-17T10:35:35.918Z,1.10
2022-11-17T10:37:39.202Z,1.20
2022-11-17T10:39:42.518Z,1.13
2022-11-17T10:41:50.508Z,1.13
2022-11-17T10:44:32.228Z,0.82
2022-11-17T10:46:44.922Z,0.95
2022-11-17T10:48:57.452Z,1.02
2022-11-17T10:51:04.127Z,1.00
2022-11-17T10:53:46.299Z,1.17
2022-11-17T10:55:54.795Z,0.70
2022-11-17T10:58:17.428Z,1.40
2022-11-17T11:00:37.135Z,1.08
2022-11-17T11:02:39.554Z,1.20
2022-11-17T11:04:41.525Z,0.93
2022-11-17T11:06:43.222Z,0.88
2022-11-17T11:09:00.563Z,1.15
2022-11-17T11:11:08.938Z,1.52
2022-11-17T11:13:44.290Z,0.95
2022-11-17T11:15:46.769Z,1.15
2022-11-17T11:17:48.778Z,1.20
2022-11-17T11:19:53.323Z,1.00
2022-11-17T11:22:21.060Z,1.35
2022-11-17T11:25:03.596Z,1.00
2022-11-17T11:27:44.298Z,0.90
2022-11-17T11:30:01.344Z,0.90
2022-11-17T11:32:33.898Z,1.60
2022-11-17T11:34:50.151Z,1.52
2022-11-17T11:37:00.152Z,1.42
2022-11-17T11:39:43.741Z,0.85
2022-11-17T11:42:07.928Z,0.98
2022-11-17T11:44:29.036Z,1.08
2022-11-17T11:46:48.836Z,1.13
2022-11-17T11:48:55.044Z,1.20
2022-11-17T11:51:08.874Z,1.42
2022-11-17T11:53:37.598Z,1.05
2022-11-17T11:55:41.923Z,1.05
2022-11-17T11:57:55.691Z,1.20
2022-11-17T12:00:04.438Z,1.30
2022-11-17T12:02:12.825Z,1.30
2022-11-17T12:04:49.491Z,1.58
2022-11-17T12:07:11.378Z,1.40
2022-11-17T12:09:41.639Z,1.30
2022-11-17T12:12:02.447Z,2.15
2022-11-17T12:14:06.653Z,1.20
2022-11-17T12:16:19.418Z,1.35
2022-11-17T12:18:21.285Z,1.30
2022-11-17T12:20:53.274Z,1.73
2022-11-17T12:23:13.729Z,1.50
2022-11-17T12:25:36.297Z,1.55
2022-11-17T12:27:44.223Z,1.35
2022-11-17T12:29:51.884Z,1.00
2022-11-17T12:32:02.013Z,1.77
2022-11-17T12:34:06.408Z,1.40
2022-11-17T12:36:14.984Z,1.20
2022-11-17T12:38:18.008Z,1.10
2022-11-17T12:40:26.663Z,1.50
2022-11-17T12:42:31.183Z,1.40
2022-11-17T12:44:37.918Z,1.20
2022-11-17T12:46:44.066Z,1.30
2022-11-17T12:48:58.394Z,1.40
2022-11-17T12:51:05.006Z,1.27
2022-11-17T12:53:12.385Z,2.17
2022-11-17T12:55:22.659Z,1.20
2022-11-17T12:57:29.288Z,1.25
2022-11-17T12:59:34.921Z,1.27
2022-11-17T13:01:41.682Z,1.90
2022-11-17T13:03:47.531Z,1.13
2022-11-17T13:06:34.505Z,1.30
2022-11-17T13:08:36.761Z,1.20
2022-11-17T13:10:38.972Z,1.15
2022-11-17T13:12:41.162Z,0.88
2022-11-17T13:14:49.992Z,1.33
2022-11-17T13:16:52.618Z,1.35
2022-11-17T13:18:55.013Z,0.70
2022-11-17T13:20:58.284Z,1.00
2022-11-17T13:23:02.592Z,1.10
2022-11-17T13:25:17.069Z,1.17
2022-11-17T13:27:23.621Z,1.15
2022-11-17T13:29:25.891Z,1.08
2022-11-17T13:31:28.156Z,1.10
2022-11-17T13:33:32.390Z,0.68
2022-11-17T13:35:37.687Z,0.95
2022-11-17T13:37:40.124Z,0.90
2022-11-17T13:39:56.864Z,1.05
2022-11-17T13:42:03.930Z,0.90
2022-11-17T13:44:12.034Z,0.57
2022-11-17T13:46:14.480Z,0.70
2022-11-17T13:48:23.199Z,1.23
2022-11-17T13:50:29.930Z,0.98
2022-11-17T13:52:38.027Z,1.00
2022-11-17T13:56:48.290Z,0.90
2022-11-17T13:58:52.111Z,0.60
2022-11-17T14:00:57.924Z,0.80
2022-11-17T14:03:04.227Z,0.60
2022-11-17T14:05:15.687Z,0.68
2022-11-17T14:07:31.041Z,0.50
2022-11-17T14:09:34.909Z,0.57
2022-11-17T14:11:41.958Z,0.57
2022-11-17T14:13:49.381Z,0.60
2022-11-17T14:15:56.619Z,0.40
2022-11-17T14:18:01.457Z,0.70
2022-11-17T14:20:10.270Z,0.73
2022-11-17T14:22:21.388Z,0.60
2022-11-17T14:24:27.300Z,0.40
2022-11-17T14:26:29.555Z,0.90
2022-11-17T14:28:31.881Z,0.68
2022-11-17T14:30:37.637Z,0.50
2022-11-17T14:32:40.922Z,0.75
2022-11-17T14:34:43.544Z,0.50
2022-11-17T14:36:52.192Z,0.65
2022-11-17T14:38:55.265Z,0.57
2022-11-17T14:40:58.255Z,0.50
2022-11-17T14:43:00.524Z,0.65
2022-11-17T14:45:04.203Z,0.80
2022-11-17T14:47:06.547Z,0.80
2022-11-17T14:49:09.470Z,0.70
2022-11-17T14:51:11.713Z,0.70
2022-11-17T14:53:14.115Z,0.50
2022-11-17T14:57:27.216Z,0.68
2022-11-17T14:59:29.441Z,0.60
2022-11-17T15:01:34.824Z,0.40
2022-11-17T15:03:37.209Z,0.60
2022-11-17T15:05:45.763Z,0.43
2022-11-17T15:07:47.555Z,0.50
2022-11-17T15:09:49.211Z,0.40
2022-11-17T15:11:52.388Z,0.75
2022-11-17T15:13:54.054Z,0.40
2022-11-17T15:16:05.676Z,0.50
2022-11-17T15:18:09.434Z,0.43
2022-11-17T15:20:11.584Z,0.57
2022-11-17T15:22:13.329Z,0.77
2022-11-17T15:24:15.456Z,0.60
2022-11-17T15:26:20.308Z,0.47
2022-11-17T15:28:23.290Z,0.60
2022-11-17T15:30:25.036Z,0.50
2022-11-17T15:32:26.815Z,0.50
2022-11-17T15:34:28.484Z,0.60
2022-11-17T15:36:30.188Z,0.55
2022-11-17T15:38:33.074Z,0.70
2022-11-17T15:40:34.833Z,0.45
2022-11-17T15:42:36.530Z,0.70
2022-11-17T15:44:38.345Z,0.60
2022-11-17T15:46:45.835Z,0.68
2022-11-17T15:48:52.530Z,0.90
2022-11-17T15:51:01.053Z,0.60
2022-11-17T15:53:04.446Z,0.70
2022-11-17T15:55:06.816Z,0.32
2022-11-17T15:57:08.524Z,0.50
2022-11-17T15:59:10.980Z,0.90
2022-11-17T16:01:30.809Z,0.50
2022-11-17T16:03:33.394Z,0.63
2022-11-17T16:05:35.032Z,0.45
2022-11-17T16:07:36.845Z,0.73
2022-11-17T16:09:38.572Z,0.70
2022-11-17T16:11:40.846Z,0.63
2022-11-17T16:13:42.628Z,0.40
2022-11-17T16:15:48.055Z,0.63
2022-11-17T16:17:49.703Z,0.65
2022-11-17T16:19:51.324Z,0.98
2022-11-17T16:21:52.967Z,0.50
2022-11-17T16:23:56.557Z,0.93
2022-11-17T16:25:58.471Z,0.50
2022-11-17T16:28:00.231Z,0.70
2022-11-17T16:30:02.091Z,0.50
2022-11-17T16:32:03.922Z,0.75
2022-11-17T16:34:11.689Z,0.80
2022-11-17T16:36:13.322Z,0.60
2022-11-17T16:38:16.982Z,0.57
2022-11-17T16:40:18.803Z,0.68
2022-11-17T16:42:20.457Z,0.70
2022-11-17T16:44:22.104Z,0.50
2022-11-17T16:46:26.514Z,0.50
2022-11-17T16:48:28.227Z,0.73
2022-11-17T16:50:30.054Z,0.57
2022-11-17T16:52:34.886Z,0.68
2022-11-17T16:54:36.552Z,0.50
2022-11-17T16:56:38.239Z,0.40
2022-11-17T16:58:40.115Z,0.60
2022-11-17T17:00:41.732Z,0.80
2022-11-17T17:02:43.687Z,0.40
2022-11-17T17:04:45.446Z,0.50
2022-11-17T17:06:47.173Z,0.50
2022-11-17T17:08:54.023Z,0.50
2022-11-17T17:10:55.731Z,0.40
2022-11-17T17:12:57.471Z,0.52
2022-11-17T17:14:59.185Z,0.50
2022-11-17T17:17:00.935Z,0.38
2022-11-17T17:19:04.470Z,0.65
2022-11-17T17:21:07.414Z,0.50
2022-11-17T17:23:09.087Z,0.40
2022-11-17T17:25:14.952Z,0.65
2022-11-17T17:27:16.978Z,0.60
2022-11-17T17:29:18.735Z,0.50
2022-11-17T17:31:22.409Z,0.60
2022-11-17T17:33:24.317Z,0.70
2022-11-17T17:35:26.092Z,0.60
2022-11-17T17:37:27.755Z,0.60
2022-11-17T17:39:29.400Z,0.63
2022-11-17T17:41:34.034Z,0.85
2022-11-17T17:43:36.565Z,0.75
2022-11-17T17:45:38.293Z,0.77
2022-11-17T17:47:40.103Z,0.70
2022-11-17T17:49:41.716Z,1.13
2022-11-17T17:51:44.357Z,0.93
2022-11-17T17:53:50.043Z,0.60
2022-11-17T17:55:51.811Z,0.77
2022-11-17T17:57:53.584Z,0.90
2022-11-17T17:59:55.373Z,1.05
2022-11-17T18:01:57.027Z,0.70
2022-11-17T18:04:04.555Z,0.80
2022-11-17T18:06:06.997Z,0.73
2022-11-17T18:08:08.712Z,1.35
2022-11-17T18:10:10.361Z,0.85
2022-11-17T18:12:12.050Z,0.80
2022-11-17T18:14:13.979Z,0.90
2022-11-17T18:16:17.871Z,0.90
2022-11-17T18:18:19.560Z,0.88
2022-11-17T18:20:21.275Z,0.70
2022-11-17T18:22:22.927Z,0.90
2022-11-17T18:24:24.679Z,0.70
2022-11-17T18:26:29.397Z,0.77
2022-11-17T18:28:31.390Z,1.38
2022-11-17T18:30:33.159Z,0.93
2022-11-17T18:32:35.420Z,0.90
2022-11-17T18:34:37.207Z,0.93
2022-11-17T18:36:39.254Z,0.95
2022-11-17T18:38:41.073Z,1.08
2022-11-17T18:40:43.316Z,0.90
2022-11-17T18:42:45.035Z,1.10
2022-11-17T18:44:46.750Z,0.50
2022-11-17T18:46:48.617Z,0.93
2022-11-17T18:48:52.175Z,1.13
2022-11-17T18:51:18.277Z,0.77
2022-11-17T18:53:15.801Z,0.73
2022-11-17T18:55:26.213Z,1.00
2022-11-17T18:57:27.910Z,0.95
2022-11-17T18:59:29.539Z,0.80
2022-11-17T19:01:31.560Z,0.88
2022-11-17T19:03:34.195Z,1.23
2022-11-17T19:05:36.055Z,1.33
2022-11-17T19:07:37.820Z,1.25
2022-11-17T19:09:39.723Z,0.80
2022-11-17T19:11:41.461Z,1.00
2022-11-17T19:13:43.616Z,1.05
2022-11-17T19:15:45.332Z,0.80
2022-11-17T19:17:47.144Z,0.77
2022-11-17T19:19:48.818Z,1.02
2022-11-17T19:21:50.513Z,0.73
2022-11-17T19:23:53.615Z,1.10
2022-11-17T19:25:55.300Z,1.17
2022-11-17T19:27:57.348Z,1.10
2022-11-17T19:29:59.126Z,1.08
2022-11-17T19:32:00.796Z,1.20
2022-11-17T19:34:02.616Z,1.27
2022-11-17T19:36:08.910Z,1.40
2022-11-17T19:38:10.723Z,1.90
2022-11-17T19:40:12.707Z,1.17
2022-11-17T19:42:14.377Z,1.13
2022-11-17T19:44:16.077Z,1.45
2022-11-17T19:46:17.796Z,1.60
2022-11-17T19:48:19.479Z,1.20
2022-11-17T19:50:21.129Z,2.13
2022-11-17T19:52:22.779Z,1.80
2022-11-17T19:54:24.502Z,1.88
2022-11-17T19:56:26.539Z,2.00
2022-11-17T19:58:28.253Z,1.23
2022-11-17T20:00:29.928Z,1.70
2022-11-17T20:02:31.664Z,1.15
2022-11-17T20:04:33.334Z,1.63
2022-11-17T20:06:38.905Z,1.30
2022-11-17T20:08:41.025Z,1.52
2022-11-17T20:10:42.880Z,1.13
2022-11-17T20:12:44.705Z,1.20
2022-11-17T20:14:47.473Z,1.50
2022-11-17T20:16:50.644Z,1.20
2022-11-17T20:18:54.536Z,1.35
2022-11-17T20:20:56.304Z,1.33
2022-11-17T20:22:57.972Z,1.55
2022-11-17T20:25:03.496Z,1.23
2022-11-17T20:27:05.524Z,1.45
2022-11-17T20:29:07.349Z,1.50
2022-11-17T20:31:14.197Z,1.45
2022-11-17T20:33:15.843Z,1.10
2022-11-17T20:35:20.940Z,1.42
2022-11-17T20:37:22.877Z,1.70
2022-11-17T20:39:24.779Z,1.35
2022-11-17T20:41:27.313Z,1.52
2022-11-17T20:43:29.740Z,1.17
2022-11-17T20:45:31.435Z,1.10
2022-11-17T20:47:33.258Z,1.23
2022-11-17T20:49:34.988Z,1.80
2022-11-17T20:51:36.724Z,1.52
2022-11-17T20:53:39.680Z,0.98
2022-11-17T20:55:42.536Z,1.48
2022-11-17T20:57:44.271Z,1.60
2022-11-17T20:59:45.980Z,1.60
2022-11-17T21:01:49.642Z,1.10
2022-11-17T21:03:51.728Z,1.27
2022-11-17T21:05:59.576Z,1.10
2022-11-17T21:08:01.801Z,1.25
2022-11-17T21:10:03.479Z,1.40
2022-11-17T21:12:05.554Z,1.25
2022-11-17T21:14:12.433Z,1.95
2022-11-17T21:16:15.219Z,1.10
2022-11-17T21:18:25.669Z,1.25
2022-11-17T21:20:29.903Z,1.38
2022-11-17T21:22:31.732Z,1.10
2022-11-17T21:24:33.372Z,1.30
2022-11-17T21:26:35.468Z,1.13
2022-11-17T21:28:38.587Z,1.17
2022-11-17T21:30:40.339Z,1.40
2022-11-17T21:32:42.232Z,1.33
2022-11-17T21:34:49.535Z,1.10
2022-11-17T21:36:53.677Z,0.90
2022-11-17T21:38:56.507Z,0.80
2022-11-17T21:41:11.539Z,1.00
2022-11-17T21:43:13.282Z,1.55
2022-11-17T21:45:22.076Z,1.38
2022-11-17T21:47:23.966Z,1.08
2022-11-17T21:49:25.666Z,1.25
2022-11-17T21:51:33.750Z,0.80
2022-11-17T21:53:35.428Z,1.00
2022-11-17T21:55:38.914Z,0.93
2022-11-17T21:57:40.583Z,1.65
2022-11-17T21:59:42.974Z,0.88
2022-11-17T22:01:44.949Z,1.10
2022-11-17T22:03:46.610Z,1.70
2022-11-17T22:05:50.093Z,1.38
2022-11-17T22:07:53.747Z,1.60
2022-11-17T22:09:55.388Z,1.05
2022-11-17T22:11:58.600Z,0.98
2022-11-17T22:14:20.580Z,0.73
2022-11-17T22:16:22.812Z,0.80
2022-11-17T22:18:24.464Z,1.30
2022-11-17T22:20:26.150Z,1.10
2022-11-17T22:22:27.829Z,1.10
2022-11-17T22:24:29.932Z,0.90
2022-11-17T22:26:32.302Z,1.33
2022-11-17T22:28:34.078Z,1.27
2022-11-17T22:30:38.722Z,0.88
2022-11-17T22:32:45.058Z,0.88
2022-11-17T22:34:47.130Z,0.60
2022-11-17T22:36:48.916Z,0.85
2022-11-17T22:38:52.164Z,0.90
2022-11-17T22:40:59.497Z,0.63
2022-11-17T22:43:04.491Z,1.17
2022-11-17T22:45:06.982Z,0.95
2022-11-17T22:47:08.618Z,1.13
2022-11-17T22:49:10.450Z,1.05
2022-11-17T22:51:13.099Z,0.90
2022-11-17T22:53:14.823Z,1.00
2022-11-17T22:55:25.244Z,0.80
2022-11-17T22:57:27.675Z,0.80
2022-11-17T22:59:30.518Z,0.90
2022-11-17T23:01:32.545Z,1.25
2022-11-17T23:03:34.270Z,0.80
2022-11-17T23:05:36.701Z,0.70
2022-11-17T23:07:38.466Z,0.90
2022-11-17T23:09:40.394Z,0.88
2022-11-17T23:11:42.205Z,0.70
2022-11-17T23:13:43.847Z,0.68
2022-11-17T23:15:45.499Z,0.90
2022-11-17T23:17:48.962Z,0.50
2022-11-17T23:19:50.731Z,0.77
2022-11-17T23:21:52.496Z,0.90
2022-11-17T23:23:54.321Z,0.70
2022-11-17T23:26:01.533Z,1.00
2022-11-17T23:28:03.486Z,0.70
2022-11-17T23:30:05.700Z,0.55
2022-11-17T23:32:07.418Z,0.73
2022-11-17T23:34:10.665Z,0.95
2022-11-17T23:36:18.257Z,0.82
2022-11-17T23:38:19.893Z,0.80
2022-11-17T23:40:21.573Z,0.60
2022-11-17T23:42:23.234Z,0.70
2022-11-17T23:44:25.199Z,0.57
2022-11-17T23:46:27.400Z,0.70
2022-11-17T23:48:29.132Z,0.57
2022-11-17T23:50:30.774Z,0.80
2022-11-17T23:52:32.645Z,1.08
2022-11-17T23:54:34.356Z,0.60
2022-11-17T23:56:36.314Z,0.65
2022-11-17T23:58:38.444Z,0.80
